createdAt,value
2023-01-01T00:02:24.357Z,99800.00
2023-01-01T00:04:51.082Z,99803.00
2023-01-01T00:07:17.799Z,99793.00
2023-01-01T00:10:23.317Z,99804.00
2023-01-01T00:12:50.005Z,99796.00
2023-01-01T00:15:16.729Z,99803.00
2023-01-01T00:17:43.414Z,99805.00
2023-01-01T00:20:10.532Z,99808.00
2023-01-01T00:22:54.557Z,99811.00
2023-01-01T00:25:22.331Z,99829.00
2023-01-01T00:27:49.115Z,99825.00
2023-01-01T00:30:15.904Z,99826.00
2023-01-01T00:32:42.630Z,99809.00
2023-01-01T00:35:21.851Z,99817.00
2023-01-01T00:37:48.555Z,99832.00
2023-01-01T00:40:15.280Z,99823.00
2023-01-01T00:42:42.035Z,99840.00
2023-01-01T00:45:09.410Z,99843.00
2023-01-01T00:47:36.145Z,99845.00
2023-01-01T00:50:03.407Z,99862.00
2023-01-01T00:52:30.094Z,99858.00
2023-01-01T00:54:56.829Z,99866.00
2023-01-01T00:57:23.698Z,99864.00
2023-01-01T00:59:50.421Z,99868.00
2023-01-01T01:02:17.206Z,99865.00
2023-01-01T01:04:44.074Z,99876.00
2023-01-01T01:07:10.745Z,99871.00
2023-01-01T01:09:37.421Z,99877.00
2023-01-01T01:12:18.785Z,99885.00
2023-01-01T01:14:46.757Z,99886.00
2023-01-01T01:17:13.521Z,99891.00
2023-01-01T01:19:40.226Z,99888.00
2023-01-01T01:22:06.914Z,99885.00
2023-01-01T01:24:33.612Z,99877.00
2023-01-01T01:27:00.299Z,99901.00
2023-01-01T01:29:26.964Z,99900.00
2023-01-01T01:31:53.659Z,99895.00
2023-01-01T01:34:27.164Z,99911.00
2023-01-01T01:36:54.814Z,99922.00
2023-01-01T01:39:21.544Z,99910.00
2023-01-01T01:41:48.521Z,99917.00
2023-01-01T01:44:49.306Z,99939.00
2023-01-01T01:47:16.002Z,99940.00
2023-01-01T01:49:44.233Z,99930.00
2023-01-01T01:52:11.256Z,99939.00
2023-01-01T01:54:38.548Z,99943.00
2023-01-01T01:57:07.934Z,99955.00
2023-01-01T01:59:38.431Z,99948.00
2023-01-01T02:02:09.936Z,99941.00
2023-01-01T02:04:36.816Z,99949.00
2023-01-01T02:07:03.805Z,99952.00
2023-01-01T02:09:30.655Z,99934.00
2023-01-01T02:11:58.731Z,99927.00
2023-01-01T02:14:25.455Z,99938.00
2023-01-01T02:17:06.514Z,99944.00
2023-01-01T02:19:58.499Z,99940.00
2023-01-01T02:22:31.195Z,99950.00
2023-01-01T02:25:16.637Z,99970.00
2023-01-01T02:28:19.807Z,99966.00
2023-01-01T02:30:47.575Z,99957.00
2023-01-01T02:33:24.595Z,99987.00
2023-01-01T02:35:56.204Z,99958.00
2023-01-01T02:38:34.904Z,99972.00
2023-01-01T02:41:23.839Z,99977.00
2023-01-01T02:43:51.678Z,99961.00
2023-01-01T02:48:49.447Z,99984.00
2023-01-01T02:51:43.723Z,99954.00
2023-01-01T02:54:19.506Z,99958.00
2023-01-01T02:57:11.236Z,99961.00
2023-01-01T03:00:24.357Z,99955.00
2023-01-01T03:03:25.009Z,99987.00
2023-01-01T03:06:23.412Z,99984.00
2023-01-01T03:09:08.954Z,99980.00
2023-01-01T03:12:00.762Z,99983.00
2023-01-01T03:14:57.770Z,99997.00
2023-01-01T03:17:29.979Z,100006.00
2023-01-01T03:19:58.962Z,99972.00
2023-01-01T03:22:30.665Z,99983.00
2023-01-01T03:25:05.410Z,99993.00
2023-01-01T03:27:37.374Z,99987.00
2023-01-01T03:30:08.422Z,99988.00
2023-01-01T03:33:00.324Z,100014.00
2023-01-01T03:35:43.666Z,100000.00
2023-01-01T03:38:29.950Z,100024.00
2023-01-01T03:41:01.193Z,99995.00
2023-01-01T03:43:46.661Z,99992.00
2023-01-01T03:46:14.377Z,99995.00
2023-01-01T03:49:02.750Z,99972.00
2023-01-01T03:51:51.962Z,99968.00
2023-01-01T03:54:30.167Z,99962.00
2023-01-01T03:57:13.221Z,99965.00
2023-01-01T03:59:52.171Z,99955.00
2023-01-01T04:02:21.760Z,99961.00
2023-01-01T04:04:49.333Z,99961.00
2023-01-01T04:07:16.181Z,99959.00
2023-01-01T04:09:47.189Z,99966.00
2023-01-01T04:12:15.311Z,99979.00
2023-01-01T04:14:43.030Z,99978.00
2023-01-01T04:17:11.821Z,99986.00
2023-01-01T04:19:38.703Z,100015.00
2023-01-01T04:22:05.594Z,100016.00
2023-01-01T04:24:32.322Z,100017.00
2023-01-01T04:26:59.055Z,100007.00
2023-01-01T04:29:25.805Z,100016.00
2023-01-01T04:31:52.644Z,100022.00
2023-01-01T04:34:19.393Z,100028.00
2023-01-01T04:36:47.034Z,100023.00
2023-01-01T04:39:13.741Z,100003.00
2023-01-01T04:41:40.488Z,100025.00
2023-01-01T04:44:07.258Z,100013.00
2023-01-01T04:46:34.008Z,100007.00
2023-01-01T04:49:00.737Z,100030.00
2023-01-01T04:51:27.475Z,100028.00
2023-01-01T04:53:54.252Z,100026.00
2023-01-01T04:56:21.931Z,100037.00
2023-01-01T04:58:49.236Z,100031.00
2023-01-01T05:01:27.388Z,100039.00
2023-01-01T05:03:55.071Z,100041.00
2023-01-01T05:06:22.195Z,100060.00
2023-01-01T05:08:50.612Z,100054.00
2023-01-01T05:11:37.663Z,100056.00
2023-01-01T05:14:04.744Z,100054.00
2023-01-01T05:16:34.292Z,100039.00
2023-01-01T05:19:01.348Z,100040.00
2023-01-01T05:21:33.324Z,100047.00
2023-01-01T05:24:02.024Z,100044.00
2023-01-01T05:26:31.839Z,100052.00
2023-01-01T05:29:00.157Z,100053.00
2023-01-01T05:31:31.185Z,100057.00
2023-01-01T05:36:27.499Z,100066.00
2023-01-01T05:38:54.545Z,100064.00
2023-01-01T05:41:22.189Z,100088.00
2023-01-01T05:43:49.546Z,100090.00
2023-01-01T05:46:24.463Z,100087.00
2023-01-01T05:48:53.098Z,100108.00
2023-01-01T05:51:21.902Z,100112.00
2023-01-01T05:53:49.049Z,100116.00
2023-01-01T05:56:16.477Z,100128.00
2023-01-01T05:58:46.628Z,100113.00
2023-01-01T06:01:38.811Z,100136.00
2023-01-01T06:04:11.699Z,100123.00
2023-01-01T06:06:38.638Z,100126.00
2023-01-01T06:09:05.686Z,100130.00
2023-01-01T06:11:33.015Z,100120.00
2023-01-01T06:14:00.436Z,100126.00
2023-01-01T06:16:29.004Z,100141.00
2023-01-01T06:18:55.983Z,100142.00
2023-01-01T06:21:24.860Z,100143.00
2023-01-01T06:23:51.998Z,100143.00
2023-01-01T06:26:24.375Z,100152.00
2023-01-01T06:28:51.943Z,100152.00
2023-01-01T06:31:21.157Z,100165.00
2023-01-01T06:33:49.087Z,100164.00
2023-01-01T06:36:17.351Z,100171.00
2023-01-01T06:38:46.528Z,100160.00
2023-01-01T06:41:15.835Z,100165.00
2023-01-01T06:43:42.653Z,100185.00
2023-01-01T06:46:24.651Z,100191.00
2023-01-01T06:48:55.066Z,100173.00
2023-01-01T06:51:25.937Z,100182.00
2023-01-01T06:53:53.252Z,100189.00
2023-01-01T06:56:20.638Z,100183.00
2023-01-01T06:58:47.577Z,100186.00
2023-01-01T07:01:19.669Z,100186.00
2023-01-01T07:04:00.837Z,100170.00
2023-01-01T07:06:29.681Z,100190.00
2023-01-01T07:08:56.609Z,100176.00
2023-01-01T07:11:23.914Z,100182.00
2023-01-01T07:13:50.745Z,100193.00
2023-01-01T07:16:17.910Z,100186.00
2023-01-01T07:18:45.573Z,100194.00
2023-01-01T07:21:32.761Z,100201.00
2023-01-01T07:24:05.328Z,100184.00
2023-01-01T07:26:33.001Z,100199.00
2023-01-01T07:29:06.780Z,100206.00
2023-01-01T07:31:39.646Z,100204.00
2023-01-01T07:34:07.744Z,100199.00
2023-01-01T07:36:34.524Z,100192.00
2023-01-01T07:39:01.385Z,100214.00
2023-01-01T07:41:28.126Z,100227.00
2023-01-01T07:43:54.950Z,100220.00
2023-01-01T07:46:21.946Z,100247.00
2023-01-01T07:48:48.780Z,100243.00
2023-01-01T07:51:15.754Z,100255.00
2023-01-01T07:53:42.526Z,100278.00
2023-01-01T07:56:09.376Z,100277.00
2023-01-01T07:58:39.890Z,100279.00
2023-01-01T08:01:06.655Z,100287.00
2023-01-01T08:03:33.473Z,100269.00
2023-01-01T08:06:00.277Z,100291.00
2023-01-01T08:08:27.018Z,100285.00
2023-01-01T08:10:55.707Z,100289.00
2023-01-01T08:13:24.405Z,100288.00
2023-01-01T08:15:51.797Z,100299.00
2023-01-01T08:18:18.707Z,100290.00
2023-01-01T08:20:45.481Z,100313.00
2023-01-01T08:23:12.266Z,100315.00
2023-01-01T08:25:39.137Z,100315.00
2023-01-01T08:28:05.912Z,100330.00
2023-01-01T08:30:32.955Z,100342.00
2023-01-01T08:32:59.658Z,100339.00
2023-01-01T08:35:26.441Z,100353.00
2023-01-01T08:37:53.888Z,100347.00
2023-01-01T08:40:20.679Z,100361.00
2023-01-01T08:42:47.361Z,100372.00
2023-01-01T08:45:14.102Z,100369.00
2023-01-01T08:47:40.835Z,100386.00
2023-01-01T08:50:08.336Z,100401.00
2023-01-01T08:52:35.071Z,100418.00
2023-01-01T08:55:01.833Z,100420.00
2023-01-01T08:57:31.842Z,100441.00
2023-01-01T08:59:58.700Z,100449.00
2023-01-01T09:02:25.652Z,100449.00
2023-01-01T09:04:52.517Z,100469.00
2023-01-01T09:07:19.277Z,100471.00
2023-01-01T09:09:46.105Z,100470.00
2023-01-01T09:12:16.401Z,100475.00
2023-01-01T09:14:46.598Z,100477.00
2023-01-01T09:17:13.360Z,100480.00
2023-01-01T09:19:40.228Z,100485.00
2023-01-01T09:22:13.270Z,100491.00
2023-01-01T09:24:40.038Z,100510.00
2023-01-01T09:27:06.774Z,100524.00
2023-01-01T09:29:33.545Z,100515.00
2023-01-01T09:32:00.332Z,100528.00
2023-01-01T09:34:27.258Z,100529.00
2023-01-01T09:36:54.060Z,100533.00
2023-01-01T09:39:20.801Z,100565.00
2023-01-01T09:41:57.118Z,100571.00
2023-01-01T09:44:45.244Z,100605.00
2023-01-01T09:47:38.372Z,100608.00
2023-01-01T09:50:14.051Z,100617.00
2023-01-01T09:52:45.384Z,100608.00
2023-01-01T09:55:21.234Z,100629.00
2023-01-01T09:57:48.078Z,100637.00
2023-01-01T10:00:16.861Z,100616.00
2023-01-01T10:03:06.511Z,100654.00
2023-01-01T10:05:48.364Z,100640.00
2023-01-01T10:08:36.351Z,100650.00
2023-01-01T10:11:12.496Z,100655.00
2023-01-01T10:13:45.139Z,100659.00
2023-01-01T10:16:27.063Z,100695.00
2023-01-01T10:18:58.833Z,100674.00
2023-01-01T10:21:46.553Z,100692.00
2023-01-01T10:24:42.887Z,100694.00
2023-01-01T10:27:24.661Z,100697.00
2023-01-01T10:29:51.912Z,100693.00
2023-01-01T10:32:21.881Z,100694.00
2023-01-01T10:34:50.499Z,100669.00
2023-01-01T10:37:17.717Z,100675.00
2023-01-01T10:39:45.813Z,100693.00
2023-01-01T10:42:13.627Z,100699.00
2023-01-01T10:44:41.224Z,100696.00
2023-01-01T10:47:27.003Z,100701.00
2023-01-01T10:49:59.112Z,100702.00
2023-01-01T10:52:37.844Z,100727.00
2023-01-01T10:55:06.420Z,100719.00
2023-01-01T10:57:40.729Z,100703.00
2023-01-01T11:00:21.413Z,100722.00
2023-01-01T11:03:05.245Z,100722.00
2023-01-01T11:05:32.037Z,100716.00
2023-01-01T11:07:58.818Z,100725.00
2023-01-01T11:10:25.845Z,100704.00
2023-01-01T11:13:09.790Z,100719.00
2023-01-01T11:15:39.607Z,100730.00
2023-01-01T11:18:14.174Z,100762.00
2023-01-01T11:20:41.804Z,100749.00
2023-01-01T11:23:20.818Z,100730.00
2023-01-01T11:25:58.948Z,100731.00
2023-01-01T11:28:26.315Z,100750.00
2023-01-01T11:31:01.449Z,100760.00
2023-01-01T11:33:30.036Z,100752.00
2023-01-01T11:35:57.024Z,100753.00
2023-01-01T11:38:29.747Z,100751.00
2023-01-01T11:41:06.996Z,100751.00
2023-01-01T11:43:39.975Z,100761.00
2023-01-01T11:46:09.084Z,100759.00
2023-01-01T11:48:44.081Z,100750.00
2023-01-01T11:51:28.580Z,100760.00
2023-01-01T11:54:24.572Z,100774.00
2023-01-01T11:56:55.110Z,100778.00
2023-01-01T11:59:29.150Z,100758.00
2023-01-01T12:02:02.957Z,100765.00
2023-01-01T12:04:38.893Z,100776.00
2023-01-01T12:07:05.674Z,100785.00
2023-01-01T12:09:46.099Z,100766.00
2023-01-01T12:12:32.854Z,100751.00
2023-01-01T12:15:18.767Z,100772.00
2023-01-01T12:18:26.365Z,100788.00
2023-01-01T12:21:01.496Z,100779.00
2023-01-01T12:23:45.114Z,100791.00
2023-01-01T12:27:08.608Z,100791.00
2023-01-01T12:29:46.605Z,100797.00
2023-01-01T12:32:34.586Z,100820.00
2023-01-01T12:35:42.430Z,100804.00
2023-01-01T12:38:27.423Z,100796.00
2023-01-01T12:41:26.789Z,100803.00
2023-01-01T12:43:56.420Z,100819.00
2023-01-01T12:47:02.463Z,100825.00
2023-01-01T12:53:03.302Z,100844.00
2023-01-01T12:56:03.861Z,100843.00
2023-01-01T12:58:35.067Z,100834.00
2023-01-01T13:01:22.567Z,100848.00
2023-01-01T13:04:00.611Z,100848.00
2023-01-01T13:06:36.536Z,100846.00
2023-01-01T13:09:13.434Z,100835.00
2023-01-01T13:11:44.957Z,100861.00
2023-01-01T13:14:12.663Z,100854.00
2023-01-01T13:16:41.699Z,100863.00
2023-01-01T13:19:25.159Z,100873.00
2023-01-01T13:21:51.942Z,100873.00
2023-01-01T13:24:24.098Z,100878.00
2023-01-01T13:26:51.282Z,100891.00
2023-01-01T13:29:17.978Z,100881.00
2023-01-01T13:31:44.696Z,100890.00
2023-01-01T13:34:30.249Z,100891.00
2023-01-01T13:37:17.114Z,100889.00
2023-01-01T13:40:02.802Z,100894.00
2023-01-01T13:42:50.945Z,100881.00
2023-01-01T13:46:00.863Z,100888.00
2023-01-01T13:48:27.152Z,100901.00
2023-01-01T13:51:00.633Z,100901.00
2023-01-01T13:54:05.549Z,100908.00
2023-01-01T13:56:44.515Z,100925.00
2023-01-01T13:59:32.762Z,100914.00
2023-01-01T14:02:18.296Z,100906.00
2023-01-01T14:05:14.111Z,100919.00
2023-01-01T14:07:52.614Z,100912.00
2023-01-01T14:10:24.787Z,100928.00
2023-01-01T14:12:52.698Z,100920.00
2023-01-01T14:15:31.655Z,100913.00
2023-01-01T14:18:00.520Z,100923.00
2023-01-01T14:20:46.051Z,100911.00
2023-01-01T14:23:28.300Z,100925.00
2023-01-01T14:25:55.101Z,100901.00
2023-01-01T14:28:32.929Z,100916.00
2023-01-01T14:31:08.766Z,100916.00
2023-01-01T14:33:38.465Z,100919.00
2023-01-01T14:36:21.695Z,100914.00
2023-01-01T14:38:51.299Z,100931.00
2023-01-01T14:41:20.537Z,100937.00
2023-01-01T14:43:49.570Z,100933.00
2023-01-01T14:46:19.424Z,100947.00
2023-01-01T14:48:48.074Z,100936.00
2023-01-01T14:51:23.472Z,100940.00
2023-01-01T14:53:51.846Z,100950.00
2023-01-01T14:56:33.368Z,100959.00
2023-01-01T14:59:11.678Z,100960.00
2023-01-01T15:01:39.716Z,100962.00
2023-01-01T15:04:22.950Z,100962.00
2023-01-01T15:06:57.516Z,100955.00
2023-01-01T15:09:24.639Z,100955.00
2023-01-01T15:11:53.489Z,100959.00
2023-01-01T15:14:38.385Z,100962.00
2023-01-01T15:17:10.725Z,100981.00
2023-01-01T15:19:41.193Z,100978.00
2023-01-01T15:22:12.436Z,100986.00
2023-01-01T15:24:39.374Z,100995.00
2023-01-01T15:27:08.277Z,100989.00
2023-01-01T15:29:47.318Z,100998.00
2023-01-01T15:32:15.353Z,101012.00
2023-01-01T15:34:48.085Z,100994.00
2023-01-01T15:37:28.122Z,100995.00
2023-01-01T15:40:00.285Z,101006.00
2023-01-01T15:42:33.829Z,100998.00
2023-01-01T15:45:15.786Z,100996.00
2023-01-01T15:47:42.557Z,100996.00
2023-01-01T15:50:23.977Z,100990.00
2023-01-01T15:53:08.340Z,100991.00
2023-01-01T15:55:36.844Z,100986.00
2023-01-01T15:58:04.368Z,100982.00
2023-01-01T16:00:33.226Z,100972.00
2023-01-01T16:03:03.815Z,100978.00
2023-01-01T16:05:30.668Z,100970.00
2023-01-01T16:08:02.389Z,100967.00
2023-01-01T16:10:29.482Z,100966.00
2023-01-01T16:12:56.208Z,100975.00
2023-01-01T16:15:22.988Z,100971.00
2023-01-01T16:17:50.568Z,100979.00
2023-01-01T16:20:18.949Z,100975.00
2023-01-01T16:22:46.128Z,100979.00
2023-01-01T16:25:14.915Z,100983.00
2023-01-01T16:27:41.969Z,100985.00
2023-01-01T16:30:09.507Z,100995.00
2023-01-01T16:32:39.559Z,100982.00
2023-01-01T16:35:12.078Z,100990.00
2023-01-01T16:37:39.116Z,100995.00
2023-01-01T16:40:07.540Z,100991.00
2023-01-01T16:42:34.204Z,100996.00
2023-01-01T16:45:00.932Z,100993.00
2023-01-01T16:47:27.619Z,100980.00
2023-01-01T16:49:55.423Z,100988.00
2023-01-01T16:52:33.510Z,100979.00
2023-01-01T16:55:00.687Z,100984.00
2023-01-01T16:57:27.394Z,100983.00
2023-01-01T16:59:54.065Z,100978.00
2023-01-01T17:02:20.823Z,100978.00
2023-01-01T17:04:47.559Z,100973.00
2023-01-01T17:07:14.265Z,100988.00
2023-01-01T17:09:42.042Z,100991.00
2023-01-01T17:12:08.785Z,100998.00
2023-01-01T17:14:35.592Z,101012.00
2023-01-01T17:17:02.352Z,101009.00
2023-01-01T17:19:29.068Z,101010.00
2023-01-01T17:21:55.852Z,101006.00
2023-01-01T17:24:22.670Z,101012.00
2023-01-01T17:26:53.661Z,101001.00
2023-01-01T17:29:21.432Z,101010.00
2023-01-01T17:31:48.372Z,101012.00
2023-01-01T17:34:15.212Z,101013.00
2023-01-01T17:36:43.312Z,101013.00
2023-01-01T17:39:14.542Z,101021.00
2023-01-01T17:41:42.498Z,101014.00
2023-01-01T17:44:10.485Z,101012.00
2023-01-01T17:46:37.703Z,101014.00
2023-01-01T17:49:05.147Z,101016.00
2023-01-01T17:51:32.094Z,101023.00
2023-01-01T17:53:58.882Z,101019.00
2023-01-01T17:56:25.719Z,101026.00
2023-01-01T17:58:53.368Z,101034.00
2023-01-01T18:01:23.352Z,101021.00
2023-01-01T18:03:52.387Z,101027.00
2023-01-01T18:06:19.667Z,101030.00
2023-01-01T18:08:46.625Z,101028.00
2023-01-01T18:11:13.507Z,101019.00
2023-01-01T18:13:40.584Z,101026.00
2023-01-01T18:16:08.539Z,101023.00
2023-01-01T18:18:39.541Z,101028.00
2023-01-01T18:21:08.496Z,101021.00
2023-01-01T18:23:37.073Z,101034.00
2023-01-01T18:26:05.963Z,101030.00
2023-01-01T18:28:32.979Z,101024.00
2023-01-01T18:31:17.992Z,101033.00
2023-01-01T18:33:46.738Z,101036.00
2023-01-01T18:36:15.704Z,101037.00
2023-01-01T18:38:53.099Z,101042.00
2023-01-01T18:41:51.356Z,101049.00
2023-01-01T18:44:23.051Z,101048.00
2023-01-01T18:46:56.323Z,101052.00
2023-01-01T18:49:25.067Z,101042.00
2023-01-01T18:51:56.735Z,101031.00
2023-01-01T18:54:24.453Z,101044.00
2023-01-01T18:57:00.011Z,101036.00
2023-01-01T18:59:26.749Z,101028.00
2023-01-01T19:01:53.632Z,101029.00
2023-01-01T19:04:21.176Z,101034.00
2023-01-01T19:06:47.974Z,101034.00
2023-01-01T19:09:23.407Z,101027.00
2023-01-01T19:11:52.032Z,101016.00
2023-01-01T19:14:19.723Z,101016.00
2023-01-01T19:16:48.367Z,101015.00
2023-01-01T19:19:16.554Z,101006.00
2023-01-01T19:21:49.472Z,101007.00
2023-01-01T19:24:27.379Z,101000.00
2023-01-01T19:26:58.493Z,101004.00
2023-01-01T19:29:28.272Z,100996.00
2023-01-01T19:31:56.991Z,101000.00
2023-01-01T19:34:24.854Z,100997.00
2023-01-01T19:36:51.727Z,100997.00
2023-01-01T19:39:18.531Z,100993.00
2023-01-01T19:41:45.520Z,100998.00
2023-01-01T19:44:12.281Z,100990.00
2023-01-01T19:46:39.670Z,100990.00
2023-01-01T19:49:06.533Z,100982.00
2023-01-01T19:51:33.280Z,100975.00
2023-01-01T19:54:00.142Z,100982.00
2023-01-01T19:56:26.981Z,100989.00
2023-01-01T19:58:53.821Z,100973.00
2023-01-01T20:01:20.728Z,100987.00
2023-01-01T20:03:56.970Z,100986.00
2023-01-01T20:06:24.912Z,100993.00
2023-01-01T20:08:52.246Z,100987.00
2023-01-01T20:11:20.517Z,100987.00
2023-01-01T20:13:47.380Z,100995.00
2023-01-01T20:16:14.278Z,100997.00
2023-01-01T20:18:41.096Z,100992.00
2023-01-01T20:21:27.170Z,100986.00
2023-01-01T20:23:55.076Z,100995.00
2023-01-01T20:26:23.716Z,101001.00
2023-01-01T20:29:09.290Z,101007.00
2023-01-01T20:31:36.396Z,101007.00
2023-01-01T20:34:03.226Z,100994.00
2023-01-01T20:36:48.617Z,100990.00
2023-01-01T20:39:15.349Z,100987.00
2023-01-01T20:41:42.158Z,100977.00
2023-01-01T20:44:08.922Z,100986.00
2023-01-01T20:46:38.101Z,100983.00
2023-01-01T20:49:05.011Z,100980.00
2023-01-01T20:51:31.745Z,100975.00
2023-01-01T20:53:58.587Z,100978.00
2023-01-01T20:56:25.344Z,100992.00
2023-01-01T20:58:58.972Z,100982.00
2023-01-01T21:01:27.231Z,100985.00
2023-01-01T21:03:54.113Z,100982.00
2023-01-01T21:06:24.429Z,100983.00
2023-01-01T21:08:52.126Z,100977.00
2023-01-01T21:11:19.008Z,100970.00
2023-01-01T21:13:46.102Z,100993.00
2023-01-01T21:16:21.041Z,100987.00
2023-01-01T21:18:48.375Z,101005.00
2023-01-01T21:21:21.471Z,101002.00
2023-01-01T21:23:49.193Z,101012.00
2023-01-01T21:26:39.405Z,101012.00
2023-01-01T21:29:12.953Z,101012.00
2023-01-01T21:31:39.859Z,101016.00
2023-01-01T21:34:18.845Z,101023.00
2023-01-01T21:36:45.659Z,101023.00
2023-01-01T21:39:13.570Z,101008.00
2023-01-01T21:41:40.381Z,101017.00
2023-01-01T21:44:11.787Z,101015.00
2023-01-01T21:46:42.670Z,101003.00
2023-01-01T21:49:20.548Z,100993.00
2023-01-01T21:51:56.382Z,101003.00
2023-01-01T21:54:34.540Z,100990.00
2023-01-01T21:57:11.677Z,100993.00
2023-01-01T21:59:40.721Z,101001.00
2023-01-01T22:02:07.486Z,100997.00
2023-01-01T22:04:37.771Z,100977.00
2023-01-01T22:07:56.002Z,100983.00
2023-01-01T22:10:18.889Z,100984.00
2023-01-01T22:12:46.790Z,100980.00
2023-01-01T22:15:25.853Z,100986.00
2023-01-01T22:18:21.745Z,100983.00
2023-01-01T22:20:48.556Z,100996.00
2023-01-01T22:23:25.987Z,100983.00
2023-01-01T22:25:53.117Z,100986.00
2023-01-01T22:28:26.236Z,100987.00
2023-01-01T22:31:00.666Z,101000.00
2023-01-01T22:33:41.498Z,101000.00
2023-01-01T22:36:20.933Z,100994.00
2023-01-01T22:38:47.771Z,100990.00
2023-01-01T22:41:15.081Z,100993.00
2023-01-01T22:43:43.704Z,101002.00
2023-01-01T22:46:36.113Z,100991.00
2023-01-01T22:49:28.089Z,100992.00
2023-01-01T22:51:56.231Z,100994.00
2023-01-01T22:54:23.795Z,100989.00
2023-01-01T22:56:50.578Z,100988.00
2023-01-01T22:59:17.313Z,100982.00
2023-01-01T23:01:44.142Z,100972.00
2023-01-01T23:04:10.946Z,100968.00
2023-01-01T23:06:38.451Z,100973.00
2023-01-01T23:09:05.731Z,100963.00
2023-01-01T23:11:32.716Z,100955.00
2023-01-01T23:14:18.081Z,100951.00
2023-01-01T23:16:44.826Z,100950.00
2023-01-01T23:19:11.586Z,100953.00
2023-01-01T23:21:38.935Z,100952.00
2023-01-01T23:24:07.836Z,100955.00
2023-01-01T23:26:34.752Z,100940.00
2023-01-01T23:29:02.160Z,100932.00
2023-01-01T23:31:29.395Z,100929.00
2023-01-01T23:33:57.026Z,100917.00
2023-01-01T23:36:25.235Z,100920.00
2023-01-01T23:38:52.357Z,100914.00
2023-01-01T23:41:19.208Z,100915.00
2023-01-01T23:43:46.001Z,100907.00
2023-01-01T23:46:13.334Z,100904.00
2023-01-01T23:48:41.683Z,100902.00
2023-01-01T23:51:08.663Z,100898.00
2023-01-01T23:53:35.497Z,100879.00
2023-01-01T23:56:02.622Z,100874.00
2023-01-01T23:58:29.369Z,100885.00
